METAR Data
IDs: Format: Raw Decoded Include TAF

Data at: 0807 UTC 18 Sep 2021

LFPG 180800Z 10007KT 9999 FEW042 BKN100 18/11 Q1015 NOSIG